createdAt,value
2019-05-10T05:02:02.507Z,100490.73
2019-05-10T06:14:03.861Z,100519.52
2019-05-10T06:32:05.768Z,100524.74
2019-05-10T07:23:51.333Z,100552.25
2019-05-10T07:26:27.440Z,100551.05
2019-05-10T07:29:10.267Z,100548.36
2019-05-10T07:31:38.856Z,100547.91
2019-05-10T07:38:35.029Z,100552.14
2019-05-10T07:51:44.919Z,100558.07
2019-05-10T07:54:19.604Z,100556.00
2019-05-10T07:57:34.015Z,100552.93
2019-05-10T07:59:52.533Z,100550.64
2019-05-10T08:09:31.521Z,100563.02
2019-05-10T08:16:20.321Z,100574.39
2019-05-10T08:18:49.733Z,100574.30
2019-05-10T08:21:23.931Z,100569.35
2019-05-10T08:24:03.908Z,100570.30
2019-05-10T08:37:37.406Z,100576.94
2019-05-10T08:40:07.868Z,100571.10
2019-05-10T08:42:45.336Z,100569.91
2019-05-10T08:45:38.903Z,100580.00
2019-05-10T08:52:13.940Z,100575.16
2019-05-10T08:54:45.856Z,100581.47
2019-05-10T08:57:18.737Z,100585.08
2019-05-10T08:59:54.202Z,100585.91
2019-05-10T09:02:28.875Z,100583.88
2019-05-10T09:04:56.832Z,100592.53
2019-05-10T09:07:29.468Z,100579.80
2019-05-10T09:18:22.899Z,100580.99
2019-05-10T09:21:02.619Z,100587.57
2019-05-10T09:23:29.807Z,100576.05
2019-05-10T09:26:09.527Z,100577.41
2019-05-10T09:28:36.126Z,100570.70
2019-05-10T09:31:18.910Z,100579.20
2019-05-10T09:33:49.166Z,100573.91
2019-05-10T09:36:15.843Z,100582.20
2019-05-10T09:38:48.407Z,100586.84
2019-05-10T09:41:19.450Z,100590.72
2019-05-10T09:43:53.586Z,100583.05
2019-05-10T09:46:26.561Z,100584.81
2019-05-10T09:49:06.180Z,100590.84
2019-05-10T09:55:27.841Z,100592.61
2019-05-10T10:01:54.407Z,100592.61
2019-05-10T10:04:27.983Z,100596.86
2019-05-10T10:06:58.390Z,100596.80
2019-05-10T10:09:33.684Z,100598.34
2019-05-10T10:12:03.252Z,100595.77
2019-05-10T10:14:39.478Z,100600.63
2019-05-10T10:21:02.579Z,100600.25
2019-05-10T10:23:37.729Z,100596.33
2019-05-10T10:26:12.556Z,100599.55
2019-05-10T10:28:41.885Z,100595.85
2019-05-10T10:31:26.192Z,100595.22
2019-05-10T10:33:57.829Z,100596.66
2019-05-10T10:36:21.597Z,100597.77
2019-05-10T10:38:53.011Z,100596.84
2019-05-10T10:41:31.206Z,100595.05
2019-05-10T10:43:58.590Z,100594.89
2019-05-10T10:46:29.709Z,100593.22
2019-05-10T10:49:02.885Z,100594.00
2019-05-10T10:51:37.968Z,100601.03
2019-05-10T10:54:12.535Z,100603.11
2019-05-10T10:56:42.762Z,100608.52
2019-05-10T10:59:13.870Z,100605.38
2019-05-10T11:01:50.566Z,100602.99
2019-05-10T11:04:20.148Z,100607.17
2019-05-10T11:07:01.361Z,100617.38
2019-05-10T11:09:24.141Z,100611.45
2019-05-10T11:11:56.765Z,100613.01
2019-05-10T11:14:31.994Z,100613.02
2019-05-10T11:17:01.210Z,100616.23
2019-05-10T11:19:33.209Z,100617.34
2019-05-10T11:22:09.602Z,100610.83
2019-05-10T11:24:37.163Z,100611.46
2019-05-10T11:27:13.116Z,100610.02
2019-05-10T11:29:42.816Z,100615.53
2019-05-10T11:32:18.618Z,100617.13
2019-05-10T11:34:50.543Z,100617.50
2019-05-10T11:37:31.037Z,100621.78
2019-05-10T11:39:54.427Z,100626.48
2019-05-10T11:42:25.532Z,100617.06
2019-05-10T11:44:57.596Z,100621.22
2019-05-10T11:47:31.090Z,100619.64
2019-05-10T11:50:06.259Z,100622.09
2019-05-10T11:52:37.634Z,100618.46
2019-05-10T11:55:11.472Z,100628.88
2019-05-10T11:57:44.077Z,100624.72
2019-05-10T12:00:28.078Z,100625.86
2019-05-10T12:03:06.960Z,100634.22
2019-05-10T12:05:28.531Z,100640.03
2019-05-10T12:08:01.978Z,100637.91
2019-05-10T12:10:43.098Z,100637.98
2019-05-10T12:13:18.602Z,100641.17
2019-05-10T12:15:43.067Z,100644.52
2019-05-10T12:18:15.057Z,100650.08
2019-05-10T12:21:00.292Z,100649.04
2019-05-10T12:23:29.482Z,100650.75
2019-05-10T12:27:08.133Z,100659.78
2019-05-10T12:28:35.303Z,100658.96
2019-05-10T12:31:12.284Z,100660.41
2019-05-10T12:33:46.951Z,100657.69
2019-05-10T12:36:26.021Z,100667.66
2019-05-10T12:38:52.559Z,100664.92
2019-05-10T12:41:23.667Z,100671.20
2019-05-10T12:44:02.804Z,100665.98
2019-05-10T12:46:27.527Z,100669.47
2019-05-10T12:49:02.051Z,100665.89
2019-05-10T12:51:33.981Z,100675.06
2019-05-10T12:54:05.073Z,100682.34
2019-05-10T12:56:43.864Z,100688.19
2019-05-10T12:59:09.869Z,100678.44
2019-05-10T13:01:41.024Z,100681.04
2019-05-10T13:04:16.998Z,100680.94
2019-05-10T13:06:49.259Z,100681.09
2019-05-10T13:09:36.088Z,100682.77
2019-05-10T13:12:03.011Z,100703.23
2019-05-10T13:14:29.417Z,100705.18
2019-05-10T13:17:09.073Z,100701.52
2019-05-10T13:19:35.009Z,100699.11
2019-05-10T13:29:08.120Z,100710.62
2019-05-10T13:31:43.036Z,100705.05
2019-05-10T13:34:14.721Z,100705.19
2019-05-10T13:36:45.994Z,100705.77
2019-05-10T13:39:19.240Z,100716.12
2019-05-10T13:41:51.460Z,100715.77
2019-05-10T13:44:24.361Z,100710.59
2019-05-10T13:46:55.425Z,100719.63
2019-05-10T13:49:37.852Z,100717.48
2019-05-10T13:52:12.019Z,100709.47
2019-05-10T13:54:43.930Z,100713.59
2019-05-10T13:57:15.027Z,100715.91
2019-05-10T13:59:49.106Z,100725.60
2019-05-10T14:02:22.826Z,100720.86
2019-05-10T14:04:53.093Z,100720.62
2019-05-10T14:07:25.737Z,100727.86
2019-05-10T14:09:57.715Z,100725.67
2019-05-10T14:12:28.858Z,100717.31
2019-05-10T14:15:02.404Z,100722.64
2019-05-10T14:17:34.469Z,100719.91
2019-05-10T14:20:19.723Z,100724.95
2019-05-10T14:22:41.456Z,100731.78
2019-05-10T14:25:13.604Z,100737.22
2019-05-10T14:27:47.373Z,100735.39
2019-05-10T14:30:19.407Z,100735.50
2019-05-10T14:32:50.545Z,100734.88
2019-05-10T14:35:24.842Z,100733.72
2019-05-10T14:38:07.052Z,100741.10
2019-05-10T14:40:30.826Z,100743.72
2019-05-10T14:43:05.199Z,100746.96
2019-05-10T14:45:39.340Z,100760.27
2019-05-10T14:48:10.410Z,100750.72
2019-05-10T14:50:46.093Z,100750.23
2019-05-10T14:53:14.278Z,100750.61
2019-05-10T14:55:49.018Z,100753.02
2019-05-10T14:58:20.335Z,100758.39
2019-05-10T15:00:54.458Z,100763.82
2019-05-10T15:03:25.534Z,100768.77
2019-05-10T15:06:01.396Z,100766.30
2019-05-10T15:08:29.359Z,100760.62
2019-05-10T15:11:00.466Z,100763.55
2019-05-10T15:13:34.762Z,100764.14
2019-05-10T15:16:11.989Z,100762.00
2019-05-10T15:18:42.864Z,100761.34
2019-05-10T15:21:17.138Z,100759.55
2019-05-10T15:23:48.184Z,100765.33
2019-05-10T15:26:20.093Z,100764.31
2019-05-10T15:28:52.653Z,100772.49
2019-05-10T15:31:29.092Z,100770.44
2019-05-10T15:33:56.589Z,100769.95
2019-05-10T15:36:31.604Z,100770.16
2019-05-10T15:39:04.526Z,100766.67
2019-05-10T15:41:36.660Z,100768.95
2019-05-10T15:44:08.760Z,100767.52
2019-05-10T15:46:42.301Z,100769.67
2019-05-10T15:49:22.689Z,100772.33
2019-05-10T15:51:48.959Z,100767.88
2019-05-10T15:54:22.761Z,100774.02
2019-05-10T15:56:55.654Z,100778.84
2019-05-10T15:59:26.982Z,100775.94
2019-05-10T16:01:58.075Z,100781.64
2019-05-10T16:04:29.190Z,100777.64
2019-05-10T16:07:03.296Z,100787.20
2019-05-10T16:09:34.404Z,100779.42
2019-05-10T16:12:08.675Z,100780.53
2019-05-10T16:14:45.752Z,100786.34
2019-05-10T16:17:23.165Z,100783.91
2019-05-10T16:19:59.651Z,100788.98
2019-05-10T16:22:30.424Z,100796.23
2019-05-10T16:25:02.814Z,100800.20
2019-05-10T16:27:41.534Z,100801.97
2019-05-10T16:30:11.912Z,100801.97
2019-05-10T16:32:47.238Z,100807.98
2019-05-10T16:35:18.307Z,100813.89
2019-05-10T16:37:51.014Z,100819.42
2019-05-10T16:40:26.536Z,100814.20
2019-05-10T16:43:00.541Z,100811.03
2019-05-10T16:45:33.255Z,100822.95
2019-05-10T16:48:05.995Z,100824.41
2019-05-10T16:50:39.086Z,100824.87
2019-05-10T16:53:10.205Z,100827.27
2019-05-10T16:55:42.943Z,100821.36
2019-05-10T16:58:17.807Z,100826.15
2019-05-10T17:00:50.962Z,100831.50
2019-05-10T17:03:23.796Z,100824.62
2019-05-10T17:05:58.683Z,100827.22
2019-05-10T17:08:30.615Z,100827.08
2019-05-10T17:11:09.631Z,100829.48
2019-05-10T17:13:36.284Z,100830.94
2019-05-10T17:16:11.689Z,100829.85
2019-05-10T17:18:39.974Z,100833.72
2019-05-10T17:21:11.048Z,100837.75
2019-05-10T17:23:46.841Z,100835.16
2019-05-10T17:26:19.772Z,100842.36
2019-05-10T17:28:52.078Z,100843.08
2019-05-10T17:31:24.871Z,100853.39
2019-05-10T17:33:56.837Z,100846.77
2019-05-10T17:36:27.912Z,100846.79
2019-05-10T17:39:01.450Z,100849.88
2019-05-10T17:41:32.683Z,100846.23
2019-05-10T17:47:33.744Z,100854.46
2019-05-10T17:50:07.761Z,100857.98
2019-05-10T17:52:39.661Z,100861.86
2019-05-10T17:55:16.484Z,100863.02
2019-05-10T17:57:54.623Z,100864.93
2019-05-10T18:08:51.703Z,100863.50
2019-05-10T18:11:24.379Z,100873.08
2019-05-10T18:14:01.058Z,100871.02
2019-05-10T18:16:33.750Z,100873.66
2019-05-10T18:19:04.964Z,100876.17
2019-05-10T18:21:36.877Z,100875.81
2019-05-10T18:24:36.308Z,100879.62
2019-05-10T18:27:07.598Z,100886.62
2019-05-10T18:29:38.681Z,100893.99
2019-05-10T18:32:11.531Z,100888.78
2019-05-10T18:34:42.686Z,100888.14
2019-05-10T18:37:15.879Z,100890.40
2019-05-10T18:39:52.899Z,100898.86
2019-05-10T18:42:25.257Z,100900.64
2019-05-10T18:44:54.490Z,100902.98
2019-05-10T18:47:25.561Z,100914.14
2019-05-10T18:49:56.632Z,100920.45
2019-05-10T18:52:28.506Z,100925.06
2019-05-10T18:54:59.554Z,100925.27
2019-05-10T18:57:30.676Z,100937.55
2019-05-10T19:00:03.726Z,100950.22
2019-05-10T19:02:36.426Z,100947.56
2019-05-10T19:05:09.295Z,100937.36
2019-05-10T19:07:41.492Z,100938.22
2019-05-10T19:10:12.622Z,100950.77
2019-05-10T19:12:45.683Z,100953.59
2019-05-10T19:15:17.071Z,100950.34
2019-05-10T19:17:48.204Z,100955.37
2019-05-10T19:20:19.428Z,100974.13
2019-05-10T19:22:51.430Z,100965.91
2019-05-10T19:25:22.502Z,100967.47
2019-05-10T19:27:53.604Z,100969.19
2019-05-10T19:30:24.681Z,100962.56
2019-05-10T19:32:56.625Z,100967.70
2019-05-10T19:35:29.765Z,100982.06
2019-05-10T19:38:02.126Z,100998.16
2019-05-10T19:40:34.036Z,100983.69
2019-05-10T19:43:05.139Z,100971.73
2019-05-10T19:45:36.162Z,100982.61
2019-05-10T19:48:07.227Z,100985.22
2019-05-10T19:50:38.764Z,100977.70
2019-05-10T19:53:11.624Z,100975.52
2019-05-10T19:55:42.671Z,100978.91
2019-05-10T19:58:16.836Z,100975.47
2019-05-10T20:00:51.126Z,100971.92
2019-05-10T20:03:22.177Z,100968.02
2019-05-10T20:05:53.403Z,100971.17
2019-05-10T20:08:26.296Z,100965.67
2019-05-10T20:10:57.454Z,100967.70
2019-05-10T20:13:28.650Z,100964.39
2019-05-10T20:16:01.718Z,100961.94
2019-05-10T20:18:33.016Z,100958.97
2019-05-10T20:21:04.135Z,100953.66
2019-05-10T20:23:36.125Z,100950.55
2019-05-10T20:26:07.409Z,100957.64
2019-05-10T20:28:38.520Z,100960.66
2019-05-10T20:31:09.663Z,100963.11
2019-05-10T20:33:43.772Z,100958.19
2019-05-10T20:36:14.950Z,100954.41
2019-05-10T20:38:46.916Z,100952.14
2019-05-10T20:41:19.057Z,100951.55
2019-05-10T20:43:51.032Z,100945.28
2019-05-10T20:46:22.308Z,100942.63
2019-05-10T20:48:54.976Z,100942.16
2019-05-10T20:51:27.701Z,100939.97
2019-05-10T20:53:59.716Z,100946.45
2019-05-10T20:56:31.909Z,100947.28
2019-05-10T20:59:03.028Z,100941.74
2019-05-10T21:01:34.334Z,100939.20
2019-05-10T21:04:05.504Z,100945.25
2019-05-10T21:06:36.681Z,100942.98
2019-05-10T21:09:08.752Z,100941.55
2019-05-10T21:11:39.905Z,100948.64
2019-05-10T21:14:11.170Z,100944.31
2019-05-10T21:16:42.261Z,100944.39
2019-05-10T21:19:14.921Z,100948.09
2019-05-10T21:21:46.051Z,100948.52
2019-05-10T21:24:17.980Z,100947.39
2019-05-10T21:26:50.651Z,100947.55
2019-05-10T21:29:23.278Z,100950.86
2019-05-10T21:31:54.456Z,100941.42
2019-05-10T21:34:25.519Z,100941.80
2019-05-10T21:36:57.993Z,100949.37
2019-05-10T21:39:29.138Z,100941.89
2019-05-10T21:42:00.176Z,100940.28
2019-05-10T21:44:31.265Z,100938.61
2019-05-10T21:47:03.818Z,100941.84
2019-05-10T21:49:34.916Z,100940.87
2019-05-10T21:52:05.986Z,100943.44
2019-05-10T21:54:37.122Z,100940.67
2019-05-10T21:57:08.182Z,100938.61
2019-05-10T21:59:39.309Z,100938.95
2019-05-10T22:02:10.369Z,100942.19
2019-05-10T22:04:41.577Z,100944.56
2019-05-10T22:07:16.867Z,100939.95
2019-05-10T22:09:48.824Z,100941.48
2019-05-10T22:12:19.893Z,100943.73
2019-05-10T22:14:50.985Z,100950.59
2019-05-10T22:17:22.061Z,100959.12
2019-05-10T22:19:54.705Z,100955.30
2019-05-10T22:22:25.857Z,100954.75
2019-05-10T22:24:58.352Z,100957.23
2019-05-10T22:27:29.386Z,100964.61
2019-05-10T22:30:00.494Z,100957.44
2019-05-10T22:32:31.652Z,100966.89
2019-05-10T22:35:04.145Z,100972.98
2019-05-10T22:37:35.358Z,100975.15
2019-05-10T22:40:08.871Z,100980.38
2019-05-10T22:42:39.896Z,100979.63
2019-05-10T22:45:11.174Z,100982.64
2019-05-10T22:47:42.224Z,100983.52
2019-05-10T22:50:14.913Z,100980.01
2019-05-10T22:52:47.540Z,100983.05
2019-05-10T22:55:20.236Z,100981.52
2019-05-10T22:57:51.446Z,100982.84
2019-05-10T23:00:23.992Z,100987.59
2019-05-10T23:02:55.026Z,100990.02
2019-05-10T23:05:26.125Z,100992.38
2019-05-10T23:07:58.671Z,100996.55
2019-05-10T23:10:29.778Z,100993.69
2019-05-10T23:13:00.824Z,100996.62
2019-05-10T23:15:31.927Z,101004.76
2019-05-10T23:18:02.962Z,100997.00
2019-05-10T23:20:34.143Z,100995.28
2019-05-10T23:23:05.208Z,100995.09
2019-05-10T23:25:36.291Z,100998.20
2019-05-10T23:28:07.332Z,101003.31
2019-05-10T23:30:38.419Z,101002.91
2019-05-10T23:33:09.448Z,101005.66
2019-05-10T23:35:40.540Z,101001.23
2019-05-10T23:38:11.612Z,101005.27
2019-05-10T23:40:42.746Z,101001.30
2019-05-10T23:43:14.600Z,100997.90
2019-05-10T23:45:45.692Z,101001.86
2019-05-10T23:48:16.817Z,101008.58
2019-05-10T23:50:47.883Z,101010.00
2019-05-10T23:53:18.944Z,101004.89
2019-05-10T23:55:51.613Z,101004.89
2019-05-10T23:58:22.688Z,101006.21
